Time;durP1;ratioP1;P1;durP2;ratioP2;P2;SDS_P1;SDS_P2;PMS_P1;PMS_P2;Temp;Humidity;BMP_temperature;BMP_pressure;BME280_temperature;BME280_humidity;BME280_pressure;Samples;Min_cycle;Max_cycle;Signal;HPM_P1;HPM_P2
2022/07/09 00:01:31;;;;;;;7.22;4.97;;;;;;;;;;5073714;28;20074;-62
2022/07/09 00:03:57;;;;;;;8.52;4.63;;;;;;;;;;5073656;28;20033;-62
2022/07/09 00:06:23;;;;;;;5.93;4.28;;;;;;;;;;5073589;28;20071;-62
2022/07/09 00:08:49;;;;;;;6.35;4.38;;;;;;;;;;5072900;28;20432;-62
2022/07/09 00:11:16;;;;;;;6.50;3.95;;;;;;;;;;5073715;28;20525;-62
2022/07/09 00:13:42;;;;;;;6.28;4.43;;;;;;;;;;5069911;28;20131;-62
2022/07/09 00:16:08;;;;;;;5.72;4.20;;;;;;;;;;5063357;28;20656;-62
2022/07/09 00:18:34;;;;;;;6.40;4.05;;;;;;;;;;5073010;28;20031;-62
2022/07/09 00:21:00;;;;;;;10.88;4.93;;;;;;;;;;5073520;28;20428;-62
2022/07/09 00:23:26;;;;;;;11.02;4.75;;;;;;;;;;5073663;28;20024;-62
2022/07/09 00:25:52;;;;;;;11.45;4.60;;;;;;;;;;5073862;28;20098;-62
2022/07/09 00:28:19;;;;;;;9.05;4.68;;;;;;;;;;5071261;28;20048;-62
2022/07/09 00:30:45;;;;;;;5.60;4.20;;;;;;;;;;5073392;28;20114;-62
2022/07/09 00:33:11;;;;;;;7.03;4.72;;;;;;;;;;5073139;28;20512;-62
2022/07/09 00:35:37;;;;;;;5.90;4.30;;;;;;;;;;5073622;28;20108;-62
2022/07/09 00:38:03;;;;;;;9.40;4.53;;;;;;;;;;5073073;28;20044;-62
2022/07/09 00:40:29;;;;;;;7.63;4.78;;;;;;;;;;5073374;28;20048;-62
2022/07/09 00:42:55;;;;;;;8.20;4.72;;;;;;;;;;5072757;28;20032;-62
2022/07/09 00:45:22;;;;;;;8.18;4.38;;;;;;;;;;5072984;28;20032;-62
2022/07/09 00:47:48;;;;;;;8.40;4.60;;;;;;;;;;5073430;28;20027;-62
2022/07/09 00:50:14;;;;;;;13.77;4.55;;;;;;;;;;5072542;28;20029;-62
2022/07/09 00:52:40;;;;;;;9.07;3.83;;;;;;;;;;5073514;28;20028;-62
2022/07/09 00:55:07;;;;;;;7.80;4.03;;;;;;;;;;5072828;28;20484;-62
2022/07/09 00:57:34;;;;;;;8.07;4.90;;;;;;;;;;5088340;28;20027;-62
2022/07/09 01:00:00;;;;;;;6.50;4.47;;;;;;;;;;5072557;28;20024;-62
2022/07/09 01:02:27;;;;;;;10.05;4.90;;;;;;;;;;5072686;28;20047;-62
2022/07/09 01:04:53;;;;;;;9.18;4.88;;;;;;;;;;5072513;28;20508;-62
2022/07/09 01:07:19;;;;;;;9.13;5.07;;;;;;;;;;5072286;28;20025;-62
2022/07/09 01:09:45;;;;;;;6.82;4.43;;;;;;;;;;5072988;28;20016;-62
2022/07/09 01:12:11;;;;;;;6.70;4.65;;;;;;;;;;5072314;28;20393;-62
2022/07/09 01:14:37;;;;;;;8.50;4.60;;;;;;;;;;5072465;28;20039;-62
2022/07/09 01:17:05;;;;;;;7.78;4.68;;;;;;;;;;5073192;28;20382;-62
2022/07/09 01:19:32;;;;;;;9.32;5.10;;;;;;;;;;5072256;28;20386;-61
2022/07/09 01:21:58;;;;;;;9.88;5.32;;;;;;;;;;5072368;28;20067;-61
2022/07/09 01:24:24;;;;;;;9.23;4.90;;;;;;;;;;5072117;28;20028;-62
2022/07/09 01:26:52;;;;;;;8.23;4.55;;;;;;;;;;5071698;28;20432;-62
2022/07/09 01:29:18;;;;;;;8.70;5.22;;;;;;;;;;5072120;28;20033;-61
2022/07/09 01:31:44;;;;;;;7.65;5.57;;;;;;;;;;5071878;28;20024;-61
2022/07/09 01:34:10;;;;;;;7.38;4.70;;;;;;;;;;5071945;28;20023;-61
2022/07/09 01:36:36;;;;;;;11.18;5.20;;;;;;;;;;5072209;28;20036;-61
2022/07/09 01:39:03;;;;;;;9.50;4.40;;;;;;;;;;5072462;28;20029;-62
2022/07/09 01:41:30;;;;;;;5.68;4.13;;;;;;;;;;5071153;28;20035;-62
2022/07/09 01:43:56;;;;;;;7.43;4.78;;;;;;;;;;5072424;28;20059;-62
2022/07/09 01:46:23;;;;;;;6.43;4.35;;;;;;;;;;5071660;28;20501;-62
2022/07/09 01:48:49;;;;;;;8.40;4.88;;;;;;;;;;5072189;28;20059;-62
2022/07/09 01:51:15;;;;;;;7.18;4.47;;;;;;;;;;5071362;28;20067;-62
2022/07/09 01:53:41;;;;;;;7.57;4.22;;;;;;;;;;5072217;28;20111;-62
2022/07/09 01:56:09;;;;;;;9.63;4.50;;;;;;;;;;5071231;28;20017;-62
2022/07/09 01:58:35;;;;;;;8.02;4.43;;;;;;;;;;5071825;28;20040;-62
2022/07/09 02:01:01;;;;;;;5.70;3.67;;;;;;;;;;5071512;28;20020;-62
2022/07/09 02:03:27;;;;;;;8.38;4.72;;;;;;;;;;5071756;28;20035;-61
2022/07/09 02:05:53;;;;;;;6.55;4.10;;;;;;;;;;5071409;28;20020;-61
2022/07/09 02:08:19;;;;;;;7.35;3.75;;;;;;;;;;5071922;28;20024;-61
2022/07/09 02:10:45;;;;;;;5.38;3.58;;;;;;;;;;5071473;28;20024;-61
2022/07/09 02:13:12;;;;;;;8.18;4.43;;;;;;;;;;5071927;28;20028;-61
2022/07/09 02:15:39;;;;;;;5.25;3.80;;;;;;;;;;5056084;28;20059;-61
2022/07/09 02:18:05;;;;;;;5.00;3.63;;;;;;;;;;5070222;28;20033;-61
2022/07/09 02:20:32;;;;;;;6.18;3.65;;;;;;;;;;5071108;28;20047;-62
2022/07/09 02:22:58;;;;;;;8.85;4.75;;;;;;;;;;5071575;28;20041;-62
2022/07/09 02:25:24;;;;;;;5.68;3.88;;;;;;;;;;5071228;28;20024;-62
2022/07/09 02:27:53;;;;;;;7.28;3.65;;;;;;;;;;5087051;28;20052;-62
2022/07/09 02:30:19;;;;;;;8.60;3.97;;;;;;;;;;5071588;28;20036;-62
2022/07/09 02:32:45;;;;;;;4.50;3.70;;;;;;;;;;5071375;28;20070;-62
2022/07/09 02:35:11;;;;;;;7.18;3.70;;;;;;;;;;5071672;28;20397;-62
2022/07/09 02:37:37;;;;;;;8.90;4.40;;;;;;;;;;5070559;28;20474;-62
2022/07/09 02:40:04;;;;;;;7.40;4.13;;;;;;;;;;5071420;28;20034;-62
2022/07/09 02:42:30;;;;;;;6.68;4.32;;;;;;;;;;5075427;28;20031;-62
2022/07/09 02:44:56;;;;;;;6.20;4.22;;;;;;;;;;5075750;28;20047;-62
2022/07/09 02:47:22;;;;;;;8.02;4.32;;;;;;;;;;5074111;28;20441;-62
2022/07/09 02:49:48;;;;;;;7.03;4.35;;;;;;;;;;5075849;28;20056;-62
2022/07/09 02:52:15;;;;;;;5.57;3.83;;;;;;;;;;5074708;28;20025;-62
2022/07/09 02:54:41;;;;;;;4.78;4.10;;;;;;;;;;5074303;28;20063;-62
2022/07/09 02:57:08;;;;;;;7.13;4.00;;;;;;;;;;5075456;28;20028;-62
2022/07/09 02:59:34;;;;;;;8.10;4.20;;;;;;;;;;5075065;28;20104;-62
2022/07/09 03:02:01;;;;;;;8.63;4.10;;;;;;;;;;5074743;28;20050;-62
2022/07/09 03:04:27;;;;;;;9.70;4.68;;;;;;;;;;5074621;28;20100;-62
2022/07/09 03:06:53;;;;;;;6.93;4.53;;;;;;;;;;5074991;28;20033;-62
2022/07/09 03:09:19;;;;;;;6.65;4.57;;;;;;;;;;5075252;28;20036;-62
2022/07/09 03:11:45;;;;;;;11.43;4.05;;;;;;;;;;5074463;28;20078;-62
2022/07/09 03:14:11;;;;;;;6.18;4.18;;;;;;;;;;5074595;28;20028;-61
2022/07/09 03:16:37;;;;;;;8.48;4.60;;;;;;;;;;5075039;28;20086;-61
2022/07/09 03:19:04;;;;;;;8.27;4.20;;;;;;;;;;5072859;28;20013;-62
2022/07/09 03:21:30;;;;;;;7.25;4.28;;;;;;;;;;5071969;28;20029;-62
2022/07/09 03:23:57;;;;;;;7.72;4.53;;;;;;;;;;5074700;28;20028;-62
2022/07/09 03:26:23;;;;;;;9.52;4.90;;;;;;;;;;5074668;28;20401;-64
2022/07/09 03:28:49;;;;;;;8.07;4.72;;;;;;;;;;5074287;28;20075;-62
2022/07/09 03:31:15;;;;;;;6.90;5.00;;;;;;;;;;5074053;28;20027;-62
2022/07/09 03:33:41;;;;;;;6.18;4.50;;;;;;;;;;5073402;28;20379;-62
2022/07/09 03:36:09;;;;;;;5.38;3.90;;;;;;;;;;5073529;28;20025;-62
2022/07/09 03:38:35;;;;;;;7.47;4.10;;;;;;;;;;5074174;28;20441;-62
2022/07/09 03:41:01;;;;;;;8.63;4.72;;;;;;;;;;5073963;28;20037;-62
2022/07/09 03:43:27;;;;;;;5.85;3.92;;;;;;;;;;5074351;28;20028;-62
2022/07/09 03:45:54;;;;;;;8.77;4.70;;;;;;;;;;5074502;28;20039;-62
2022/07/09 03:48:20;;;;;;;6.95;4.57;;;;;;;;;;5074218;28;20115;-62
2022/07/09 03:50:47;;;;;;;8.68;5.00;;;;;;;;;;5073886;28;20435;-62
2022/07/09 03:53:13;;;;;;;10.15;5.40;;;;;;;;;;5073026;28;20432;-62
2022/07/09 03:55:39;;;;;;;7.40;4.68;;;;;;;;;;5074029;28;20029;-62
2022/07/09 03:58:05;;;;;;;9.23;5.10;;;;;;;;;;5073217;28;20056;-62
2022/07/09 04:00:31;;;;;;;11.30;5.25;;;;;;;;;;5071226;28;20037;-62
2022/07/09 04:02:58;;;;;;;8.45;5.10;;;;;;;;;;5066342;28;20033;-62
2022/07/09 04:05:24;;;;;;;7.00;4.65;;;;;;;;;;5071752;28;20031;-62
2022/07/09 04:07:50;;;;;;;8.43;5.10;;;;;;;;;;5074029;28;20401;-62
2022/07/09 04:10:16;;;;;;;9.45;5.85;;;;;;;;;;5074161;28;20486;-62
2022/07/09 04:12:42;;;;;;;7.65;4.30;;;;;;;;;;5071662;28;20052;-62
2022/07/09 04:15:08;;;;;;;5.68;4.30;;;;;;;;;;5070978;28;20469;-62
2022/07/09 04:17:35;;;;;;;8.30;4.05;;;;;;;;;;5070184;28;20466;-62
2022/07/09 04:20:01;;;;;;;5.35;4.35;;;;;;;;;;5071373;28;20432;-62
2022/07/09 04:22:27;;;;;;;7.15;4.13;;;;;;;;;;5072528;28;20036;-62
2022/07/09 04:24:53;;;;;;;6.78;4.28;;;;;;;;;;5072739;28;20078;-62
2022/07/09 04:27:19;;;;;;;9.38;4.45;;;;;;;;;;5073650;28;20044;-62
2022/07/09 04:29:45;;;;;;;8.90;4.65;;;;;;;;;;5072843;28;20082;-62
2022/07/09 04:32:12;;;;;;;6.97;4.78;;;;;;;;;;5072094;28;20112;-62
2022/07/09 04:34:38;;;;;;;6.70;4.50;;;;;;;;;;5072931;28;20028;-62
2022/07/09 04:37:05;;;;;;;5.88;4.43;;;;;;;;;;5070040;28;20028;-62
2022/07/09 04:39:32;;;;;;;6.63;4.10;;;;;;;;;;5073109;28;20501;-62
2022/07/09 04:41:58;;;;;;;6.20;3.85;;;;;;;;;;5072347;28;20423;-62
2022/07/09 04:44:25;;;;;;;5.72;3.67;;;;;;;;;;5073217;28;20036;-62
2022/07/09 04:46:51;;;;;;;5.15;3.35;;;;;;;;;;5068462;28;20071;-63
2022/07/09 04:49:17;;;;;;;5.22;3.83;;;;;;;;;;5071642;28;20546;-63
2022/07/09 04:51:43;;;;;;;8.27;3.78;;;;;;;;;;5071700;28;20024;-63
2022/07/09 04:54:09;;;;;;;6.53;3.90;;;;;;;;;;5071658;28;20031;-63
2022/07/09 04:56:35;;;;;;;5.15;3.45;;;;;;;;;;5069271;28;20031;-63
2022/07/09 04:59:02;;;;;;;6.05;4.05;;;;;;;;;;5070483;28;20025;-63
2022/07/09 05:01:29;;;;;;;6.95;4.57;;;;;;;;;;5069541;28;20379;-63
2022/07/09 05:03:55;;;;;;;10.10;4.45;;;;;;;;;;5069184;28;20055;-63
2022/07/09 05:06:21;;;;;;;6.70;4.07;;;;;;;;;;5069331;28;20393;-63
2022/07/09 05:08:48;;;;;;;6.65;4.30;;;;;;;;;;5068728;28;20119;-63
2022/07/09 05:11:14;;;;;;;8.57;4.65;;;;;;;;;;5069207;28;20021;-63
2022/07/09 05:13:40;;;;;;;8.73;4.57;;;;;;;;;;5071569;28;20033;-63
2022/07/09 05:16:07;;;;;;;10.85;5.97;;;;;;;;;;5068900;28;20111;-63
2022/07/09 05:18:33;;;;;;;12.68;7.10;;;;;;;;;;5068938;28;20119;-63
2022/07/09 05:20:59;;;;;;;14.93;7.10;;;;;;;;;;5069323;28;20063;-63
2022/07/09 05:23:25;;;;;;;13.82;8.02;;;;;;;;;;5069613;28;20525;-63
2022/07/09 05:25:52;;;;;;;14.68;7.35;;;;;;;;;;5069586;28;20029;-63
2022/07/09 05:28:19;;;;;;;12.18;7.00;;;;;;;;;;5070874;28;20493;-63
2022/07/09 05:30:45;;;;;;;12.20;7.18;;;;;;;;;;5068184;28;20032;-63
2022/07/09 05:33:11;;;;;;;12.50;6.97;;;;;;;;;;5070639;28;20017;-63
2022/07/09 05:35:38;;;;;;;16.05;7.88;;;;;;;;;;5067750;28;20108;-63
2022/07/09 05:38:04;;;;;;;10.57;6.68;;;;;;;;;;5069711;28;20020;-63
2022/07/09 05:40:30;;;;;;;10.75;6.45;;;;;;;;;;5067501;28;20021;-63
2022/07/09 05:42:57;;;;;;;12.27;6.90;;;;;;;;;;5066661;28;20395;-63
2022/07/09 05:45:23;;;;;;;12.05;6.70;;;;;;;;;;5070978;28;20024;-63
2022/07/09 05:47:49;;;;;;;11.23;6.05;;;;;;;;;;5067606;28;20483;-63
2022/07/09 05:50:15;;;;;;;8.68;5.97;;;;;;;;;;5069711;28;20024;-63
2022/07/09 05:52:41;;;;;;;9.90;6.15;;;;;;;;;;5071074;28;20039;-63
2022/07/09 05:55:08;;;;;;;10.82;6.38;;;;;;;;;;5070648;28;20088;-63
2022/07/09 05:57:34;;;;;;;9.63;6.38;;;;;;;;;;5064421;28;20060;-63
2022/07/09 06:00:00;;;;;;;8.82;5.90;;;;;;;;;;5069979;28;20016;-62
2022/07/09 06:02:26;;;;;;;9.38;5.82;;;;;;;;;;5066308;28;20078;-62
2022/07/09 06:04:52;;;;;;;9.15;5.80;;;;;;;;;;5070452;28;20440;-62
2022/07/09 06:07:18;;;;;;;9.80;5.40;;;;;;;;;;5068246;28;20486;-62
2022/07/09 06:09:44;;;;;;;8.93;5.40;;;;;;;;;;5071071;28;20020;-62
2022/07/09 06:12:10;;;;;;;8.23;5.47;;;;;;;;;;5068673;28;20462;-62
2022/07/09 06:14:37;;;;;;;9.10;5.72;;;;;;;;;;5068804;28;20050;-62
2022/07/09 06:17:06;;;;;;;11.90;5.65;;;;;;;;;;5063997;28;20025;-64
2022/07/09 06:19:33;;;;;;;7.18;5.43;;;;;;;;;;5069237;28;20047;-64
2022/07/09 06:21:59;;;;;;;10.38;5.88;;;;;;;;;;5066098;28;20060;-64
2022/07/09 06:24:25;;;;;;;9.13;5.60;;;;;;;;;;5069193;28;20036;-64
2022/07/09 06:26:52;;;;;;;7.15;5.32;;;;;;;;;;5061013;28;20066;-63
2022/07/09 06:29:18;;;;;;;7.38;5.60;;;;;;;;;;5065220;28;20706;-63
2022/07/09 06:31:44;;;;;;;7.30;5.38;;;;;;;;;;5064344;28;20040;-63
2022/07/09 06:34:11;;;;;;;11.45;6.10;;;;;;;;;;5065344;28;20104;-62
2022/07/09 06:36:38;;;;;;;9.57;6.13;;;;;;;;;;5062976;28;20024;-62
2022/07/09 06:41:49;;;;;;;7.13;4.78;;;;;;;;;;5052116;28;20037;-62
2022/07/09 06:44:15;;;;;;;8.10;4.70;;;;;;;;;;5053530;28;20040;-62
2022/07/09 06:46:41;;;;;;;5.25;4.28;;;;;;;;;;5057347;28;20056;-62
2022/07/09 06:49:07;;;;;;;7.68;3.60;;;;;;;;;;5054919;28;20104;-62
2022/07/09 06:51:33;;;;;;;11.50;4.82;;;;;;;;;;5055409;28;20039;-62
2022/07/09 06:53:59;;;;;;;6.13;3.88;;;;;;;;;;5057624;28;20028;-62
2022/07/09 06:56:26;;;;;;;8.73;4.30;;;;;;;;;;5054873;28;20498;-62
2022/07/09 06:58:52;;;;;;;6.57;4.10;;;;;;;;;;5053143;28;20027;-62
2022/07/09 07:01:18;;;;;;;5.57;3.63;;;;;;;;;;5055753;28;20029;-62
2022/07/09 07:03:44;;;;;;;6.55;4.03;;;;;;;;;;5058732;28;20498;-62
2022/07/09 07:06:10;;;;;;;3.75;3.08;;;;;;;;;;5054237;28;20044;-62
2022/07/09 07:08:36;;;;;;;11.18;3.90;;;;;;;;;;5057493;28;20035;-62
2022/07/09 07:11:02;;;;;;;4.13;2.83;;;;;;;;;;5055436;28;20025;-62
2022/07/09 07:13:29;;;;;;;5.95;3.08;;;;;;;;;;5054071;28;20037;-62
2022/07/09 07:15:55;;;;;;;9.55;3.60;;;;;;;;;;5055778;28;20087;-62
2022/07/09 07:18:21;;;;;;;7.20;3.58;;;;;;;;;;5056518;28;20517;-62
2022/07/09 07:20:47;;;;;;;6.85;2.90;;;;;;;;;;5053902;28;20474;-62
2022/07/09 07:23:15;;;;;;;4.30;2.95;;;;;;;;;;5055617;28;20051;-62
2022/07/09 07:25:41;;;;;;;6.07;3.25;;;;;;;;;;5056799;28;20029;-62
2022/07/09 07:28:07;;;;;;;9.93;2.80;;;;;;;;;;5055609;28;20044;-62
2022/07/09 07:30:35;;;;;;;8.85;3.78;;;;;;;;;;5063129;28;20033;-62
2022/07/09 07:33:01;;;;;;;6.10;3.08;;;;;;;;;;5070843;28;20067;-62
2022/07/09 07:35:27;;;;;;;6.03;3.25;;;;;;;;;;5072377;28;20103;-62
2022/07/09 07:37:53;;;;;;;5.40;2.65;;;;;;;;;;5074626;28;20021;-63
2022/07/09 07:40:20;;;;;;;7.55;2.80;;;;;;;;;;5073947;28;20043;-62
2022/07/09 07:42:46;;;;;;;7.30;2.67;;;;;;;;;;5073110;28;20023;-62
2022/07/09 07:45:12;;;;;;;5.40;2.80;;;;;;;;;;5073430;28;20020;-62
2022/07/09 07:47:38;;;;;;;6.78;2.95;;;;;;;;;;5072620;28;20029;-62
2022/07/09 07:50:05;;;;;;;7.22;3.25;;;;;;;;;;5071004;28;20474;-63
2022/07/09 07:52:32;;;;;;;7.90;3.05;;;;;;;;;;5067696;28;20016;-62
2022/07/09 07:54:58;;;;;;;6.85;2.60;;;;;;;;;;5070409;28;20027;-62
2022/07/09 07:57:24;;;;;;;6.50;2.60;;;;;;;;;;5072613;28;20503;-62
2022/07/09 07:59:50;;;;;;;4.00;2.50;;;;;;;;;;5072256;28;20029;-63
2022/07/09 08:02:16;;;;;;;7.45;2.65;;;;;;;;;;5072701;28;20078;-63
2022/07/09 08:04:42;;;;;;;4.40;2.70;;;;;;;;;;5072990;28;20094;-63
2022/07/09 08:07:09;;;;;;;10.18;3.08;;;;;;;;;;5066676;28;20032;-63
2022/07/09 08:09:35;;;;;;;7.68;2.60;;;;;;;;;;5062071;28;20028;-62
2022/07/09 08:12:01;;;;;;;9.63;3.17;;;;;;;;;;5067146;28;20070;-62
2022/07/09 08:14:27;;;;;;;10.18;2.88;;;;;;;;;;5082999;28;20062;-62
2022/07/09 08:16:54;;;;;;;5.38;2.67;;;;;;;;;;5068974;28;20490;-62
2022/07/09 08:19:20;;;;;;;5.60;2.80;;;;;;;;;;5070686;28;20465;-62
2022/07/09 08:21:46;;;;;;;6.03;3.13;;;;;;;;;;5060258;28;20021;-62
2022/07/09 08:24:12;;;;;;;8.93;3.03;;;;;;;;;;5066605;28;20021;-62
2022/07/09 08:26:38;;;;;;;8.32;3.05;;;;;;;;;;5063679;28;20043;-62
2022/07/09 08:29:04;;;;;;;12.77;3.47;;;;;;;;;;5070190;28;20040;-62
2022/07/09 08:31:30;;;;;;;8.75;3.83;;;;;;;;;;5071692;28;20439;-62
2022/07/09 08:33:56;;;;;;;9.52;3.50;;;;;;;;;;5070119;28;20025;-62
2022/07/09 08:36:22;;;;;;;14.40;3.20;;;;;;;;;;5072940;28;20592;-62
2022/07/09 08:38:49;;;;;;;8.82;3.80;;;;;;;;;;5072943;28;20516;-62
2022/07/09 08:41:19;;;;;;;8.18;3.08;;;;;;;;;;5073067;28;20040;-62
2022/07/09 08:43:48;;;;;;;8.98;3.78;;;;;;;;;;5073263;28;20063;-62
2022/07/09 08:46:15;;;;;;;10.98;3.15;;;;;;;;;;5072101;28;20025;-62
2022/07/09 08:48:43;;;;;;;11.80;3.67;;;;;;;;;;5073107;28;20044;-62
2022/07/09 08:51:10;;;;;;;6.80;3.40;;;;;;;;;;5072138;28;20482;-62
2022/07/09 08:53:40;;;;;;;8.00;3.10;;;;;;;;;;5072945;28;20208;-62
2022/07/09 08:56:06;;;;;;;7.88;3.42;;;;;;;;;;5072933;28;20024;-62
2022/07/09 08:58:32;;;;;;;14.35;4.25;;;;;;;;;;5072793;28;20043;-62
2022/07/09 09:00:59;;;;;;;7.97;3.45;;;;;;;;;;5072572;28;20516;-62
2022/07/09 09:03:25;;;;;;;8.55;3.65;;;;;;;;;;5073414;28;20482;-62
2022/07/09 09:06:02;;;;;;;13.20;3.47;;;;;;;;;;5072494;28;20124;-62
2022/07/09 09:08:28;;;;;;;7.75;3.35;;;;;;;;;;5072706;28;20040;-62
2022/07/09 09:10:54;;;;;;;8.00;3.28;;;;;;;;;;5072029;28;20528;-62
2022/07/09 09:13:20;;;;;;;7.63;3.47;;;;;;;;;;5073084;28;20060;-62
2022/07/09 09:15:46;;;;;;;8.50;3.35;;;;;;;;;;5071533;28;20016;-62
2022/07/09 09:18:12;;;;;;;8.38;3.45;;;;;;;;;;5072920;28;20281;-62
2022/07/09 09:20:44;;;;;;;10.40;3.45;;;;;;;;;;5088551;28;20028;-62
2022/07/09 09:23:16;;;;;;;6.65;2.97;;;;;;;;;;5072522;28;20532;-62
2022/07/09 09:25:42;;;;;;;10.80;3.72;;;;;;;;;;5071769;28;20062;-62
2022/07/09 09:28:09;;;;;;;10.73;3.22;;;;;;;;;;5072349;28;20123;-62
2022/07/09 09:30:41;;;;;;;6.43;3.35;;;;;;;;;;5074071;28;20029;-62
2022/07/09 09:33:07;;;;;;;6.25;3.13;;;;;;;;;;5072183;28;20033;-62
2022/07/09 09:35:34;;;;;;;9.40;3.38;;;;;;;;;;5072281;28;20508;-62
2022/07/09 09:38:00;;;;;;;8.43;3.22;;;;;;;;;;5072097;28;20043;-62
2022/07/09 09:40:26;;;;;;;7.70;3.28;;;;;;;;;;5072506;28;20025;-62
2022/07/09 09:42:53;;;;;;;7.47;3.20;;;;;;;;;;5072012;28;20021;-62
2022/07/09 09:45:19;;;;;;;10.35;2.97;;;;;;;;;;5072457;28;20017;-62
2022/07/09 09:47:50;;;;;;;4.55;2.80;;;;;;;;;;5072426;28;20035;-62
2022/07/09 09:50:20;;;;;;;8.35;3.05;;;;;;;;;;5072215;28;20036;-62
2022/07/09 09:52:47;;;;;;;7.85;3.58;;;;;;;;;;5072012;28;20029;-62
2022/07/09 09:55:14;;;;;;;7.57;3.20;;;;;;;;;;5071935;28;20512;-62
2022/07/09 09:57:41;;;;;;;9.00;3.97;;;;;;;;;;5071886;28;20017;-62
2022/07/09 10:00:08;;;;;;;9.80;2.88;;;;;;;;;;5071493;28;20020;-62
2022/07/09 10:02:39;;;;;;;6.07;3.30;;;;;;;;;;5071681;28;21074;-62
2022/07/09 10:05:05;;;;;;;7.50;3.25;;;;;;;;;;5071495;28;20112;-62
2022/07/09 10:07:33;;;;;;;5.60;3.78;;;;;;;;;;5071545;28;20047;-62
2022/07/09 10:09:59;;;;;;;5.72;3.53;;;;;;;;;;5071760;28;20042;-62
2022/07/09 10:12:29;;;;;;;8.27;3.20;;;;;;;;;;5071944;28;20021;-62
2022/07/09 10:14:55;;;;;;;6.85;3.05;;;;;;;;;;5071632;28;20029;-63
2022/07/09 10:17:21;;;;;;;12.13;3.80;;;;;;;;;;5071143;28;20024;-63
2022/07/09 10:19:52;;;;;;;6.10;2.90;;;;;;;;;;5071961;28;20094;-63
2022/07/09 10:22:18;;;;;;;7.57;3.28;;;;;;;;;;5071524;28;20032;-63
2022/07/09 10:24:46;;;;;;;7.40;3.42;;;;;;;;;;5071756;28;20375;-63
2022/07/09 10:27:13;;;;;;;8.13;3.25;;;;;;;;;;5070566;28;20505;-63
2022/07/09 10:29:56;;;;;;;6.60;3.15;;;;;;;;;;5063093;28;20040;-62
2022/07/09 10:32:29;;;;;;;5.60;3.38;;;;;;;;;;5071314;28;20041;-62
2022/07/09 10:35:01;;;;;;;7.95;3.22;;;;;;;;;;5070960;28;20143;-62
2022/07/09 10:37:42;;;;;;;10.27;3.83;;;;;;;;;;5056040;28;20059;-62
2022/07/09 10:40:18;;;;;;;9.13;3.92;;;;;;;;;;5071498;28;20029;-62
2022/07/09 10:42:46;;;;;;;6.90;3.35;;;;;;;;;;5071687;28;20066;-62
2022/07/09 10:45:16;;;;;;;6.32;3.33;;;;;;;;;;5070774;28;20024;-62
2022/07/09 10:47:42;;;;;;;10.95;3.08;;;;;;;;;;5071393;28;20086;-62
2022/07/09 10:50:08;;;;;;;8.70;3.03;;;;;;;;;;5071501;28;20539;-62
2022/07/09 10:52:35;;;;;;;6.25;3.15;;;;;;;;;;5071264;28;20504;-62
2022/07/09 10:55:01;;;;;;;7.03;3.03;;;;;;;;;;5070836;28;20017;-62
2022/07/09 10:57:27;;;;;;;6.20;2.95;;;;;;;;;;5071672;28;20024;-62
2022/07/09 10:59:53;;;;;;;8.98;3.13;;;;;;;;;;5071507;28;20127;-62
2022/07/09 11:02:20;;;;;;;7.03;3.13;;;;;;;;;;5073190;28;20090;-62
2022/07/09 11:04:50;;;;;;;9.07;2.88;;;;;;;;;;5075271;28;20106;-62
2022/07/09 11:07:23;;;;;;;6.80;3.47;;;;;;;;;;5074642;28;20440;-62
2022/07/09 11:09:50;;;;;;;9.20;3.35;;;;;;;;;;5075431;28;20063;-62
2022/07/09 11:12:20;;;;;;;9.82;3.03;;;;;;;;;;5074711;28;20111;-62
2022/07/09 11:14:46;;;;;;;6.80;3.70;;;;;;;;;;5075482;28;20028;-62
2022/07/09 11:17:19;;;;;;;7.45;3.33;;;;;;;;;;5074599;28;20056;-62
2022/07/09 11:19:49;;;;;;;7.45;3.10;;;;;;;;;;5074948;28;20025;-62
2022/07/09 11:22:16;;;;;;;8.32;3.30;;;;;;;;;;5074882;28;20100;-62
2022/07/09 11:24:42;;;;;;;9.07;3.50;;;;;;;;;;5075208;28;20414;-62
2022/07/09 11:27:08;;;;;;;5.15;3.53;;;;;;;;;;5074391;28;20048;-62
2022/07/09 11:29:35;;;;;;;8.73;3.45;;;;;;;;;;5073902;28;20101;-62
2022/07/09 11:32:01;;;;;;;8.07;3.80;;;;;;;;;;5074324;28;20040;-62
2022/07/09 11:34:29;;;;;;;8.02;3.33;;;;;;;;;;5074212;28;20036;-62
2022/07/09 11:36:56;;;;;;;9.15;4.00;;;;;;;;;;5074362;28;20028;-62
2022/07/09 11:39:23;;;;;;;5.68;3.30;;;;;;;;;;5074049;28;20029;-62
2022/07/09 11:41:49;;;;;;;6.32;3.08;;;;;;;;;;5074729;28;20052;-62
2022/07/09 11:44:24;;;;;;;8.63;3.53;;;;;;;;;;5074513;28;20100;-62
2022/07/09 11:47:03;;;;;;;5.68;3.83;;;;;;;;;;5074757;28;20470;-62
2022/07/09 11:49:43;;;;;;;8.05;3.60;;;;;;;;;;5074076;28;20035;-62
2022/07/09 11:52:25;;;;;;;11.55;4.45;;;;;;;;;;5074495;28;20040;-62
2022/07/09 11:55:00;;;;;;;6.35;3.22;;;;;;;;;;5074060;28;20090;-62
2022/07/09 11:57:27;;;;;;;6.57;3.10;;;;;;;;;;5074007;28;20029;-62
2022/07/09 11:59:53;;;;;;;6.07;3.90;;;;;;;;;;5074594;28;20026;-62
2022/07/09 12:02:27;;;;;;;11.07;3.90;;;;;;;;;;5073709;28;20390;-62
2022/07/09 12:04:53;;;;;;;6.88;3.83;;;;;;;;;;5073926;28;20074;-62
2022/07/09 12:07:19;;;;;;;5.18;3.10;;;;;;;;;;5074067;28;20028;-62
2022/07/09 12:09:45;;;;;;;5.55;3.22;;;;;;;;;;5073297;28;20028;-62
2022/07/09 12:12:11;;;;;;;6.00;3.03;;;;;;;;;;5074024;28;20067;-62
2022/07/09 12:14:37;;;;;;;5.95;2.90;;;;;;;;;;5072954;28;20028;-62
2022/07/09 12:17:04;;;;;;;6.45;2.88;;;;;;;;;;5089796;28;20474;-62
2022/07/09 12:19:30;;;;;;;5.03;2.80;;;;;;;;;;5073494;28;20036;-63
2022/07/09 12:21:56;;;;;;;7.65;2.92;;;;;;;;;;5074005;28;20031;-62
2022/07/09 12:24:22;;;;;;;4.03;2.45;;;;;;;;;;5073692;28;20032;-62
2022/07/09 12:26:48;;;;;;;6.50;2.55;;;;;;;;;;5074153;28;20052;-62
2022/07/09 12:29:14;;;;;;;7.13;2.78;;;;;;;;;;5066388;28;20107;-63
2022/07/09 12:31:40;;;;;;;7.95;2.92;;;;;;;;;;5073596;28;20182;-62
2022/07/09 12:34:07;;;;;;;7.68;2.78;;;;;;;;;;5075219;28;20551;-62
2022/07/09 12:36:33;;;;;;;9.05;3.42;;;;;;;;;;5073250;28;20025;-62
2022/07/09 12:38:59;;;;;;;5.00;3.25;;;;;;;;;;5073182;28;20203;-62
2022/07/09 12:41:25;;;;;;;6.43;2.80;;;;;;;;;;5073241;28;20035;-62
2022/07/09 12:43:51;;;;;;;13.52;3.05;;;;;;;;;;5073450;28;20497;-62
2022/07/09 12:46:17;;;;;;;6.10;2.75;;;;;;;;;;5073476;28;20108;-62
2022/07/09 12:48:43;;;;;;;10.13;3.70;;;;;;;;;;5073258;28;20031;-62
2022/07/09 12:51:10;;;;;;;6.40;3.20;;;;;;;;;;5073446;28;20493;-62
2022/07/09 12:53:36;;;;;;;10.32;3.28;;;;;;;;;;5071909;28;20021;-62
2022/07/09 12:56:02;;;;;;;7.60;3.63;;;;;;;;;;5073634;28;20070;-62
2022/07/09 12:58:28;;;;;;;10.95;3.78;;;;;;;;;;5073041;28;20021;-62
2022/07/09 13:00:54;;;;;;;12.52;3.95;;;;;;;;;;5072825;28;20387;-62
2022/07/09 13:03:20;;;;;;;9.32;3.40;;;;;;;;;;5072699;28;20462;-62
2022/07/09 13:05:46;;;;;;;10.45;3.67;;;;;;;;;;5072761;28;20020;-62
2022/07/09 13:08:12;;;;;;;9.68;3.17;;;;;;;;;;5072777;28;20440;-62
2022/07/09 13:10:38;;;;;;;9.68;4.10;;;;;;;;;;5072863;28;20028;-62
2022/07/09 13:13:05;;;;;;;7.45;3.25;;;;;;;;;;5070882;28;20075;-63
2022/07/09 13:15:31;;;;;;;8.25;3.38;;;;;;;;;;5070222;28;20477;-63
2022/07/09 13:17:57;;;;;;;7.60;4.00;;;;;;;;;;5072326;28;20478;-63
2022/07/09 13:20:23;;;;;;;7.20;3.15;;;;;;;;;;5071764;28;20023;-63
2022/07/09 13:22:49;;;;;;;6.68;3.30;;;;;;;;;;5072185;28;20063;-63
2022/07/09 13:25:16;;;;;;;9.98;3.33;;;;;;;;;;5073095;28;20032;-62
2022/07/09 13:27:42;;;;;;;9.57;3.22;;;;;;;;;;5073072;28;20146;-62
2022/07/09 13:30:08;;;;;;;8.23;3.50;;;;;;;;;;5072330;28;20067;-62
2022/07/09 13:32:34;;;;;;;9.23;3.30;;;;;;;;;;5072410;28;20402;-63
2022/07/09 13:35:00;;;;;;;9.13;3.03;;;;;;;;;;5072689;28;20025;-63
2022/07/09 13:37:27;;;;;;;9.48;3.35;;;;;;;;;;5072140;28;20028;-63
2022/07/09 13:39:53;;;;;;;10.18;3.22;;;;;;;;;;5072524;28;20020;-63
2022/07/09 13:42:19;;;;;;;6.22;2.88;;;;;;;;;;5072473;28;20047;-63
2022/07/09 13:44:45;;;;;;;9.23;3.20;;;;;;;;;;5072180;28;20052;-63
2022/07/09 13:47:11;;;;;;;11.57;2.70;;;;;;;;;;5072258;28;20024;-63
2022/07/09 13:49:37;;;;;;;7.20;3.33;;;;;;;;;;5071995;28;20085;-63
2022/07/09 13:52:05;;;;;;;7.10;2.67;;;;;;;;;;5072464;28;20429;-63
2022/07/09 13:54:31;;;;;;;10.50;3.00;;;;;;;;;;5072420;28;20494;-63
2022/07/09 13:56:57;;;;;;;4.45;2.33;;;;;;;;;;5072188;28;20052;-63
2022/07/09 13:59:23;;;;;;;11.07;2.80;;;;;;;;;;5071353;28;20048;-63
2022/07/09 14:01:49;;;;;;;7.75;2.90;;;;;;;;;;5056171;28;20086;-63
2022/07/09 14:04:16;;;;;;;10.75;2.58;;;;;;;;;;5072255;28;20103;-63
2022/07/09 14:06:42;;;;;;;5.30;2.78;;;;;;;;;;5071883;28;20032;-63
2022/07/09 14:09:08;;;;;;;10.30;3.50;;;;;;;;;;5072168;28;20028;-63
2022/07/09 14:11:34;;;;;;;7.75;2.90;;;;;;;;;;5071583;28;20036;-63
2022/07/09 14:14:00;;;;;;;10.13;3.10;;;;;;;;;;5070471;28;20363;-63
2022/07/09 14:16:26;;;;;;;6.35;3.15;;;;;;;;;;5070754;28;20032;-63
2022/07/09 14:18:54;;;;;;;5.97;3.17;;;;;;;;;;5067732;28;20021;-63
2022/07/09 14:21:20;;;;;;;9.13;3.85;;;;;;;;;;5068380;28;20029;-63
2022/07/09 14:23:48;;;;;;;8.15;2.85;;;;;;;;;;5067422;28;20032;-63
2022/07/09 14:26:15;;;;;;;8.02;2.85;;;;;;;;;;5069599;28;20031;-63
2022/07/09 14:28:41;;;;;;;7.10;3.28;;;;;;;;;;5070330;28;20053;-63
2022/07/09 14:31:08;;;;;;;6.97;3.40;;;;;;;;;;5071549;28;20037;-64
2022/07/09 14:33:34;;;;;;;7.25;3.35;;;;;;;;;;5071218;28;20051;-64
2022/07/09 14:36:00;;;;;;;9.57;3.20;;;;;;;;;;5064311;28;20058;-64
2022/07/09 14:38:27;;;;;;;8.02;3.40;;;;;;;;;;5068184;28;20029;-63
2022/07/09 14:40:53;;;;;;;6.32;2.58;;;;;;;;;;5066857;28;20116;-63